sensor_id;sensor_type;location;lat;lon;timestamp;P1;durP1;ratioP1;P2;durP2;ratioP2
73684;SDS011;61985;51.070;14.064;2024-03-23T00:53:59;11.07;;;4.70;;
73684;SDS011;61985;51.070;14.064;2024-03-23T00:56:24;8.52;;;4.78;;
73684;SDS011;61985;51.070;14.064;2024-03-23T00:58:50;8.30;;;4.20;;
73684;SDS011;61985;51.070;14.064;2024-03-23T01:01:15;8.88;;;4.60;;
73684;SDS011;61985;51.070;14.064;2024-03-23T01:03:41;8.38;;;4.50;;
73684;SDS011;61985;51.070;14.064;2024-03-23T01:06:06;9.57;;;4.65;;
73684;SDS011;61985;51.070;14.064;2024-03-23T01:08:31;10.63;;;4.85;;
73684;SDS011;61985;51.070;14.064;2024-03-23T01:10:57;8.80;;;4.13;;
73684;SDS011;61985;51.070;14.064;2024-03-23T01:13:27;10.15;;;5.30;;
73684;SDS011;61985;51.070;14.064;2024-03-23T01:15:53;8.45;;;4.80;;
73684;SDS011;61985;51.070;14.064;2024-03-23T01:18:20;8.00;;;4.40;;
73684;SDS011;61985;51.070;14.064;2024-03-23T01:20:46;8.90;;;4.75;;
73684;SDS011;61985;51.070;14.064;2024-03-23T01:23:12;9.10;;;4.82;;
73684;SDS011;61985;51.070;14.064;2024-03-23T01:25:37;9.57;;;4.45;;
73684;SDS011;61985;51.070;14.064;2024-03-23T01:28:03;8.90;;;4.35;;
73684;SDS011;61985;51.070;14.064;2024-03-23T01:30:29;11.63;;;4.45;;
73684;SDS011;61985;51.070;14.064;2024-03-23T01:32:55;7.07;;;4.35;;
73684;SDS011;61985;51.070;14.064;2024-03-23T01:35:21;9.65;;;4.55;;
73684;SDS011;61985;51.070;14.064;2024-03-23T01:37:46;7.90;;;4.55;;
73684;SDS011;61985;51.070;14.064;2024-03-23T01:40:12;8.07;;;4.50;;
73684;SDS011;61985;51.070;14.064;2024-03-23T01:42:38;9.18;;;4.60;;
73684;SDS011;61985;51.070;14.064;2024-03-23T01:45:06;12.15;;;5.25;;
73684;SDS011;61985;51.070;14.064;2024-03-23T01:47:33;10.10;;;4.70;;
73684;SDS011;61985;51.070;14.064;2024-03-23T01:49:58;9.10;;;4.75;;
73684;SDS011;61985;51.070;14.064;2024-03-23T01:52:24;9.95;;;5.18;;
73684;SDS011;61985;51.070;14.064;2024-03-23T01:54:50;12.80;;;5.88;;
73684;SDS011;61985;51.070;14.064;2024-03-23T01:57:16;9.95;;;5.50;;
73684;SDS011;61985;51.070;14.064;2024-03-23T01:59:42;10.55;;;5.40;;
73684;SDS011;61985;51.070;14.064;2024-03-23T02:02:07;10.75;;;6.10;;
73684;SDS011;61985;51.070;14.064;2024-03-23T02:04:33;12.85;;;6.10;;
73684;SDS011;61985;51.070;14.064;2024-03-23T02:06:58;12.30;;;6.78;;
73684;SDS011;61985;51.070;14.064;2024-03-23T02:09:24;11.52;;;6.15;;
73684;SDS011;61985;51.070;14.064;2024-03-23T02:11:50;11.90;;;5.68;;
73684;SDS011;61985;51.070;14.064;2024-03-23T02:14:15;10.57;;;5.20;;
73684;SDS011;61985;51.070;14.064;2024-03-23T02:16:41;13.13;;;5.68;;
73684;SDS011;61985;51.070;14.064;2024-03-23T02:19:08;10.00;;;5.32;;
73684;SDS011;61985;51.070;14.064;2024-03-23T02:21:33;8.90;;;5.07;;
73684;SDS011;61985;51.070;14.064;2024-03-23T02:23:59;9.43;;;5.70;;
73684;SDS011;61985;51.070;14.064;2024-03-23T02:26:25;10.95;;;5.75;;
73684;SDS011;61985;51.070;14.064;2024-03-23T02:28:51;11.65;;;5.60;;
73684;SDS011;61985;51.070;14.064;2024-03-23T02:31:16;11.75;;;5.60;;
73684;SDS011;61985;51.070;14.064;2024-03-23T02:33:41;9.00;;;5.22;;
73684;SDS011;61985;51.070;14.064;2024-03-23T02:36:07;10.88;;;5.90;;
73684;SDS011;61985;51.070;14.064;2024-03-23T02:38:32;9.52;;;5.32;;
73684;SDS011;61985;51.070;14.064;2024-03-23T02:41:02;12.93;;;6.00;;
73684;SDS011;61985;51.070;14.064;2024-03-23T02:43:28;12.55;;;5.57;;
73684;SDS011;61985;51.070;14.064;2024-03-23T02:45:54;10.70;;;5.22;;
73684;SDS011;61985;51.070;14.064;2024-03-23T02:48:19;12.00;;;5.60;;
73684;SDS011;61985;51.070;14.064;2024-03-23T02:50:45;11.55;;;5.88;;
73684;SDS011;61985;51.070;14.064;2024-03-23T02:53:10;10.77;;;5.82;;
73684;SDS011;61985;51.070;14.064;2024-03-23T02:55:36;12.02;;;6.20;;
73684;SDS011;61985;51.070;14.064;2024-03-23T02:58:01;13.98;;;7.03;;
73684;SDS011;61985;51.070;14.064;2024-03-23T03:00:27;11.13;;;6.07;;
73684;SDS011;61985;51.070;14.064;2024-03-23T03:02:53;11.88;;;6.22;;
73684;SDS011;61985;51.070;14.064;2024-03-23T03:05:18;15.25;;;7.20;;
73684;SDS011;61985;51.070;14.064;2024-03-23T03:07:44;13.65;;;7.80;;
73684;SDS011;61985;51.070;14.064;2024-03-23T03:10:09;13.50;;;6.57;;
73684;SDS011;61985;51.070;14.064;2024-03-23T03:12:36;11.30;;;6.50;;
73684;SDS011;61985;51.070;14.064;2024-03-23T03:15:02;12.68;;;7.32;;
73684;SDS011;61985;51.070;14.064;2024-03-23T03:17:31;12.73;;;6.65;;
73684;SDS011;61985;51.070;14.064;2024-03-23T03:19:57;12.40;;;6.43;;
73684;SDS011;61985;51.070;14.064;2024-03-23T03:22:22;11.15;;;6.57;;
73684;SDS011;61985;51.070;14.064;2024-03-23T03:24:48;13.23;;;7.38;;
73684;SDS011;61985;51.070;14.064;2024-03-23T03:27:14;12.93;;;7.05;;
73684;SDS011;61985;51.070;14.064;2024-03-23T03:29:39;16.40;;;7.28;;
73684;SDS011;61985;51.070;14.064;2024-03-23T03:32:05;14.05;;;7.40;;
73684;SDS011;61985;51.070;14.064;2024-03-23T03:34:31;13.35;;;7.57;;
73684;SDS011;61985;51.070;14.064;2024-03-23T03:36:56;12.57;;;6.65;;
73684;SDS011;61985;51.070;14.064;2024-03-23T03:39:22;12.18;;;7.13;;
73684;SDS011;61985;51.070;14.064;2024-03-23T03:41:48;16.23;;;8.07;;
73684;SDS011;61985;51.070;14.064;2024-03-23T03:44:14;13.07;;;6.60;;
73684;SDS011;61985;51.070;14.064;2024-03-23T03:46:39;12.25;;;6.93;;
73684;SDS011;61985;51.070;14.064;2024-03-23T03:49:05;10.77;;;6.28;;
73684;SDS011;61985;51.070;14.064;2024-03-23T03:51:30;13.00;;;6.53;;
73684;SDS011;61985;51.070;14.064;2024-03-23T03:53:56;11.80;;;6.03;;
73684;SDS011;61985;51.070;14.064;2024-03-23T03:56:21;13.00;;;7.32;;
73684;SDS011;61985;51.070;14.064;2024-03-23T03:58:47;13.68;;;6.72;;
73684;SDS011;61985;51.070;14.064;2024-03-23T04:01:13;15.75;;;6.68;;
73684;SDS011;61985;51.070;14.064;2024-03-23T04:03:38;11.07;;;6.15;;
73684;SDS011;61985;51.070;14.064;2024-03-23T04:06:08;11.82;;;6.35;;
73684;SDS011;61985;51.070;14.064;2024-03-23T04:08:33;12.80;;;6.47;;
73684;SDS011;61985;51.070;14.064;2024-03-23T04:10:59;16.17;;;8.20;;
73684;SDS011;61985;51.070;14.064;2024-03-23T04:13:24;17.77;;;8.68;;
73684;SDS011;61985;51.070;14.064;2024-03-23T04:15:53;16.42;;;9.15;;
73684;SDS011;61985;51.070;14.064;2024-03-23T04:18:19;16.70;;;9.32;;
73684;SDS011;61985;51.070;14.064;2024-03-23T04:20:44;16.23;;;8.40;;
73684;SDS011;61985;51.070;14.064;2024-03-23T04:23:09;14.40;;;7.72;;
73684;SDS011;61985;51.070;14.064;2024-03-23T04:25:35;14.27;;;6.65;;
73684;SDS011;61985;51.070;14.064;2024-03-23T04:28:00;13.68;;;7.20;;
73684;SDS011;61985;51.070;14.064;2024-03-23T04:30:26;16.50;;;8.18;;
73684;SDS011;61985;51.070;14.064;2024-03-23T04:32:53;14.48;;;7.30;;
73684;SDS011;61985;51.070;14.064;2024-03-23T04:35:18;14.10;;;7.72;;
73684;SDS011;61985;51.070;14.064;2024-03-23T04:37:45;15.88;;;8.35;;
73684;SDS011;61985;51.070;14.064;2024-03-23T04:40:10;14.00;;;8.10;;
73684;SDS011;61985;51.070;14.064;2024-03-23T04:42:36;14.38;;;7.47;;
73684;SDS011;61985;51.070;14.064;2024-03-23T04:45:02;14.50;;;7.43;;
73684;SDS011;61985;51.070;14.064;2024-03-23T04:47:28;16.65;;;8.30;;
73684;SDS011;61985;51.070;14.064;2024-03-23T04:49:53;22.90;;;9.30;;
73684;SDS011;61985;51.070;14.064;2024-03-23T04:52:19;17.08;;;8.95;;
73684;SDS011;61985;51.070;14.064;2024-03-23T04:54:44;26.40;;;9.52;;
73684;SDS011;61985;51.070;14.064;2024-03-23T04:57:13;20.30;;;9.23;;
73684;SDS011;61985;51.070;14.064;2024-03-23T04:59:38;19.33;;;9.02;;
73684;SDS011;61985;51.070;14.064;2024-03-23T05:02:04;18.42;;;8.75;;
73684;SDS011;61985;51.070;14.064;2024-03-23T05:04:29;18.23;;;9.75;;
73684;SDS011;61985;51.070;14.064;2024-03-23T05:06:54;17.92;;;9.43;;
73684;SDS011;61985;51.070;14.064;2024-03-23T05:09:19;17.92;;;9.10;;
73684;SDS011;61985;51.070;14.064;2024-03-23T05:11:45;18.45;;;9.20;;
73684;SDS011;61985;51.070;14.064;2024-03-23T05:14:12;15.43;;;9.02;;
73684;SDS011;61985;51.070;14.064;2024-03-23T05:16:38;19.77;;;9.75;;
73684;SDS011;61985;51.070;14.064;2024-03-23T05:19:04;17.45;;;9.18;;
73684;SDS011;61985;51.070;14.064;2024-03-23T05:21:29;18.65;;;8.48;;
73684;SDS011;61985;51.070;14.064;2024-03-23T05:23:55;18.88;;;9.40;;
73684;SDS011;61985;51.070;14.064;2024-03-23T05:26:21;15.50;;;8.07;;
73684;SDS011;61985;51.070;14.064;2024-03-23T05:28:47;16.20;;;8.18;;
73684;SDS011;61985;51.070;14.064;2024-03-23T05:31:12;15.20;;;7.63;;
73684;SDS011;61985;51.070;14.064;2024-03-23T05:33:47;13.55;;;7.20;;
73684;SDS011;61985;51.070;14.064;2024-03-23T05:36:13;14.40;;;7.00;;
73684;SDS011;61985;51.070;14.064;2024-03-23T05:38:38;12.07;;;6.47;;
73684;SDS011;61985;51.070;14.064;2024-03-23T05:41:04;13.35;;;6.72;;
73684;SDS011;61985;51.070;14.064;2024-03-23T05:43:29;12.18;;;7.05;;
73684;SDS011;61985;51.070;14.064;2024-03-23T05:45:58;12.75;;;6.95;;
73684;SDS011;61985;51.070;14.064;2024-03-23T05:48:25;15.45;;;7.85;;
73684;SDS011;61985;51.070;14.064;2024-03-23T05:50:52;17.77;;;8.88;;
73684;SDS011;61985;51.070;14.064;2024-03-23T05:53:18;18.75;;;9.90;;
73684;SDS011;61985;51.070;14.064;2024-03-23T05:55:46;18.33;;;9.27;;
73684;SDS011;61985;51.070;14.064;2024-03-23T05:58:15;24.02;;;12.23;;
73684;SDS011;61985;51.070;14.064;2024-03-23T06:00:41;18.98;;;10.40;;
73684;SDS011;61985;51.070;14.064;2024-03-23T06:03:10;20.33;;;10.38;;
73684;SDS011;61985;51.070;14.064;2024-03-23T06:05:38;19.02;;;9.48;;
73684;SDS011;61985;51.070;14.064;2024-03-23T06:08:04;17.15;;;8.73;;
73684;SDS011;61985;51.070;14.064;2024-03-23T06:10:30;22.98;;;10.93;;
73684;SDS011;61985;51.070;14.064;2024-03-23T06:12:56;21.58;;;10.50;;
73684;SDS011;61985;51.070;14.064;2024-03-23T06:15:22;22.20;;;10.40;;
73684;SDS011;61985;51.070;14.064;2024-03-23T06:17:48;23.45;;;11.23;;
73684;SDS011;61985;51.070;14.064;2024-03-23T06:20:13;30.90;;;17.35;;
73684;SDS011;61985;51.070;14.064;2024-03-23T06:22:39;27.95;;;16.75;;
73684;SDS011;61985;51.070;14.064;2024-03-23T06:25:04;24.45;;;14.10;;
73684;SDS011;61985;51.070;14.064;2024-03-23T06:27:30;27.33;;;14.73;;
73684;SDS011;61985;51.070;14.064;2024-03-23T06:29:57;21.92;;;11.60;;
73684;SDS011;61985;51.070;14.064;2024-03-23T06:32:22;22.70;;;12.35;;
73684;SDS011;61985;51.070;14.064;2024-03-23T06:34:48;24.58;;;12.68;;
73684;SDS011;61985;51.070;14.064;2024-03-23T06:37:13;20.98;;;11.88;;
73684;SDS011;61985;51.070;14.064;2024-03-23T06:39:38;24.98;;;12.55;;
73684;SDS011;61985;51.070;14.064;2024-03-23T06:42:04;25.70;;;13.25;;
73684;SDS011;61985;51.070;14.064;2024-03-23T06:44:30;20.83;;;9.90;;
73684;SDS011;61985;51.070;14.064;2024-03-23T06:46:56;21.55;;;10.80;;
73684;SDS011;61985;51.070;14.064;2024-03-23T06:49:22;22.80;;;11.20;;
73684;SDS011;61985;51.070;14.064;2024-03-23T06:51:48;23.38;;;11.75;;
73684;SDS011;61985;51.070;14.064;2024-03-23T06:54:13;19.65;;;11.27;;
73684;SDS011;61985;51.070;14.064;2024-03-23T06:56:38;19.00;;;10.60;;
73684;SDS011;61985;51.070;14.064;2024-03-23T06:59:03;21.65;;;11.07;;
73684;SDS011;61985;51.070;14.064;2024-03-23T07:01:29;21.40;;;11.13;;
73684;SDS011;61985;51.070;14.064;2024-03-23T07:03:54;20.17;;;11.20;;
73684;SDS011;61985;51.070;14.064;2024-03-23T07:06:20;23.73;;;11.73;;
73684;SDS011;61985;51.070;14.064;2024-03-23T07:08:46;23.77;;;11.60;;
73684;SDS011;61985;51.070;14.064;2024-03-23T07:11:11;22.42;;;11.95;;
73684;SDS011;61985;51.070;14.064;2024-03-23T07:13:37;22.80;;;12.18;;
73684;SDS011;61985;51.070;14.064;2024-03-23T07:16:02;22.77;;;12.30;;
73684;SDS011;61985;51.070;14.064;2024-03-23T07:18:28;33.22;;;14.60;;
73684;SDS011;61985;51.070;14.064;2024-03-23T07:23:23;21.58;;;12.40;;
73684;SDS011;61985;51.070;14.064;2024-03-23T07:25:58;23.95;;;12.32;;
73684;SDS011;61985;51.070;14.064;2024-03-23T07:28:30;24.70;;;13.05;;
73684;SDS011;61985;51.070;14.064;2024-03-23T07:31:07;21.38;;;11.10;;
73684;SDS011;61985;51.070;14.064;2024-03-23T07:34:09;22.58;;;11.45;;
73684;SDS011;61985;51.070;14.064;2024-03-23T07:36:27;20.10;;;12.07;;
73684;SDS011;61985;51.070;14.064;2024-03-23T07:38:53;19.42;;;11.32;;
73684;SDS011;61985;51.070;14.064;2024-03-23T07:41:18;54.45;;;26.05;;
73684;SDS011;61985;51.070;14.064;2024-03-23T07:43:45;27.85;;;14.57;;
73684;SDS011;61985;51.070;14.064;2024-03-23T07:46:11;24.10;;;13.27;;
73684;SDS011;61985;51.070;14.064;2024-03-23T07:48:37;22.17;;;12.43;;
73684;SDS011;61985;51.070;14.064;2024-03-23T07:51:16;25.95;;;12.57;;
73684;SDS011;61985;51.070;14.064;2024-03-23T07:53:44;25.13;;;12.95;;
73684;SDS011;61985;51.070;14.064;2024-03-23T07:56:14;25.77;;;13.75;;
73684;SDS011;61985;51.070;14.064;2024-03-23T07:58:40;23.42;;;13.38;;
73684;SDS011;61985;51.070;14.064;2024-03-23T08:01:16;23.73;;;12.40;;
73684;SDS011;61985;51.070;14.064;2024-03-23T08:03:45;21.33;;;12.27;;
73684;SDS011;61985;51.070;14.064;2024-03-23T08:06:17;21.13;;;12.55;;
73684;SDS011;61985;51.070;14.064;2024-03-23T08:08:45;22.23;;;12.68;;
73684;SDS011;61985;51.070;14.064;2024-03-23T08:11:12;21.48;;;12.48;;
73684;SDS011;61985;51.070;14.064;2024-03-23T08:13:41;20.52;;;11.15;;
73684;SDS011;61985;51.070;14.064;2024-03-23T08:16:07;18.85;;;11.00;;
73684;SDS011;61985;51.070;14.064;2024-03-23T08:18:33;17.73;;;10.27;;
73684;SDS011;61985;51.070;14.064;2024-03-23T08:20:59;17.80;;;10.20;;
73684;SDS011;61985;51.070;14.064;2024-03-23T08:23:28;16.60;;;9.60;;
73684;SDS011;61985;51.070;14.064;2024-03-23T08:25:58;20.58;;;11.73;;
73684;SDS011;61985;51.070;14.064;2024-03-23T08:28:25;18.02;;;10.80;;
73684;SDS011;61985;51.070;14.064;2024-03-23T08:30:50;18.40;;;11.68;;
73684;SDS011;61985;51.070;14.064;2024-03-23T08:33:16;20.17;;;10.85;;
73684;SDS011;61985;51.070;14.064;2024-03-23T08:35:42;17.23;;;10.75;;
73684;SDS011;61985;51.070;14.064;2024-03-23T08:38:07;17.48;;;10.25;;
73684;SDS011;61985;51.070;14.064;2024-03-23T08:40:32;18.05;;;10.43;;
73684;SDS011;61985;51.070;14.064;2024-03-23T08:42:58;19.23;;;10.13;;
73684;SDS011;61985;51.070;14.064;2024-03-23T08:45:24;18.90;;;10.15;;
73684;SDS011;61985;51.070;14.064;2024-03-23T08:47:50;16.25;;;10.10;;
73684;SDS011;61985;51.070;14.064;2024-03-23T08:50:15;17.85;;;9.40;;
73684;SDS011;61985;51.070;14.064;2024-03-23T08:52:41;13.25;;;7.57;;
73684;SDS011;61985;51.070;14.064;2024-03-23T08:55:06;14.57;;;8.52;;
73684;SDS011;61985;51.070;14.064;2024-03-23T08:57:32;13.60;;;7.85;;
73684;SDS011;61985;51.070;14.064;2024-03-23T08:59:57;14.70;;;7.95;;
73684;SDS011;61985;51.070;14.064;2024-03-23T09:02:23;13.20;;;7.40;;
73684;SDS011;61985;51.070;14.064;2024-03-23T09:04:48;13.52;;;8.02;;
73684;SDS011;61985;51.070;14.064;2024-03-23T09:07:13;15.65;;;7.35;;
73684;SDS011;61985;51.070;14.064;2024-03-23T09:09:39;20.42;;;8.63;;
73684;SDS011;61985;51.070;14.064;2024-03-23T09:12:05;15.35;;;8.35;;
73684;SDS011;61985;51.070;14.064;2024-03-23T09:14:30;13.80;;;8.57;;
73684;SDS011;61985;51.070;14.064;2024-03-23T09:16:56;13.23;;;8.07;;
73684;SDS011;61985;51.070;14.064;2024-03-23T09:19:21;12.52;;;7.88;;
73684;SDS011;61985;51.070;14.064;2024-03-23T09:21:46;16.15;;;8.40;;
73684;SDS011;61985;51.070;14.064;2024-03-23T09:24:12;14.70;;;7.95;;
73684;SDS011;61985;51.070;14.064;2024-03-23T09:26:37;17.38;;;8.60;;
73684;SDS011;61985;51.070;14.064;2024-03-23T09:29:02;16.98;;;8.65;;
73684;SDS011;61985;51.070;14.064;2024-03-23T09:31:29;14.05;;;8.23;;
73684;SDS011;61985;51.070;14.064;2024-03-23T09:33:56;15.02;;;8.60;;
73684;SDS011;61985;51.070;14.064;2024-03-23T09:36:22;14.82;;;8.98;;
73684;SDS011;61985;51.070;14.064;2024-03-23T09:38:47;12.50;;;8.02;;
73684;SDS011;61985;51.070;14.064;2024-03-23T09:41:12;15.10;;;8.55;;
73684;SDS011;61985;51.070;14.064;2024-03-23T09:43:39;14.15;;;8.85;;
73684;SDS011;61985;51.070;14.064;2024-03-23T09:46:04;12.80;;;7.75;;
73684;SDS011;61985;51.070;14.064;2024-03-23T09:48:30;17.02;;;9.50;;
73684;SDS011;61985;51.070;14.064;2024-03-23T09:50:56;15.93;;;8.80;;
73684;SDS011;61985;51.070;14.064;2024-03-23T09:53:21;15.45;;;9.23;;
73684;SDS011;61985;51.070;14.064;2024-03-23T09:55:47;20.02;;;9.65;;
73684;SDS011;61985;51.070;14.064;2024-03-23T09:58:14;17.10;;;9.80;;
73684;SDS011;61985;51.070;14.064;2024-03-23T10:00:40;17.48;;;10.57;;
73684;SDS011;61985;51.070;14.064;2024-03-23T10:03:05;16.88;;;10.52;;
73684;SDS011;61985;51.070;14.064;2024-03-23T10:05:32;26.92;;;14.27;;
73684;SDS011;61985;51.070;14.064;2024-03-23T10:07:59;23.75;;;13.13;;
73684;SDS011;61985;51.070;14.064;2024-03-23T10:10:25;22.77;;;12.98;;
73684;SDS011;61985;51.070;14.064;2024-03-23T10:12:51;24.23;;;13.32;;
73684;SDS011;61985;51.070;14.064;2024-03-23T10:15:18;22.60;;;13.57;;
73684;SDS011;61985;51.070;14.064;2024-03-23T10:17:44;28.05;;;17.30;;
73684;SDS011;61985;51.070;14.064;2024-03-23T10:20:10;24.55;;;12.73;;
73684;SDS011;61985;51.070;14.064;2024-03-23T10:22:37;19.13;;;8.05;;
73684;SDS011;61985;51.070;14.064;2024-03-23T10:25:07;12.23;;;5.05;;
73684;SDS011;61985;51.070;14.064;2024-03-23T10:27:33;10.05;;;4.82;;
73684;SDS011;61985;51.070;14.064;2024-03-23T10:30:07;11.80;;;6.40;;
73684;SDS011;61985;51.070;14.064;2024-03-23T10:32:34;7.53;;;3.08;;
73684;SDS011;61985;51.070;14.064;2024-03-23T10:37:47;3.17;;;1.70;;
73684;SDS011;61985;51.070;14.064;2024-03-23T10:40:16;6.30;;;2.10;;
73684;SDS011;61985;51.070;14.064;2024-03-23T10:42:42;16.98;;;6.43;;
73684;SDS011;61985;51.070;14.064;2024-03-23T10:45:09;6.68;;;2.50;;
73684;SDS011;61985;51.070;14.064;2024-03-23T10:47:35;5.60;;;1.85;;
73684;SDS011;61985;51.070;14.064;2024-03-23T10:50:01;2.20;;;1.17;;
73684;SDS011;61985;51.070;14.064;2024-03-23T10:52:28;1.63;;;0.80;;
73684;SDS011;61985;51.070;14.064;2024-03-23T10:54:53;7.43;;;0.85;;
73684;SDS011;61985;51.070;14.064;2024-03-23T10:57:21;0.65;;;0.55;;
73684;SDS011;61985;51.070;14.064;2024-03-23T10:59:50;1.65;;;0.70;;
73684;SDS011;61985;51.070;14.064;2024-03-23T11:02:20;0.93;;;0.50;;
73684;SDS011;61985;51.070;14.064;2024-03-23T11:04:46;0.85;;;0.60;;
73684;SDS011;61985;51.070;14.064;2024-03-23T11:09:48;1.65;;;0.80;;
73684;SDS011;61985;51.070;14.064;2024-03-23T11:17:22;1.95;;;0.75;;
73684;SDS011;61985;51.070;14.064;2024-03-23T11:25:02;0.93;;;0.40;;
73684;SDS011;61985;51.070;14.064;2024-03-23T11:27:37;1.08;;;0.43;;
73684;SDS011;61985;51.070;14.064;2024-03-23T11:32:37;0.47;;;0.40;;
73684;SDS011;61985;51.070;14.064;2024-03-23T11:35:03;0.40;;;0.40;;
73684;SDS011;61985;51.070;14.064;2024-03-23T11:37:28;0.40;;;0.22;;
73684;SDS011;61985;51.070;14.064;2024-03-23T11:39:53;0.30;;;0.30;;
73684;SDS011;61985;51.070;14.064;2024-03-23T11:42:19;1.10;;;0.63;;
73684;SDS011;61985;51.070;14.064;2024-03-23T11:44:46;0.40;;;0.40;;
73684;SDS011;61985;51.070;14.064;2024-03-23T11:47:12;2.13;;;0.63;;
73684;SDS011;61985;51.070;14.064;2024-03-23T11:49:37;0.70;;;0.60;;
73684;SDS011;61985;51.070;14.064;2024-03-23T11:52:05;1.00;;;0.47;;
73684;SDS011;61985;51.070;14.064;2024-03-23T11:54:31;0.47;;;0.47;;
73684;SDS011;61985;51.070;14.064;2024-03-23T11:56:57;0.57;;;0.57;;
73684;SDS011;61985;51.070;14.064;2024-03-23T11:59:56;0.70;;;0.55;;
73684;SDS011;61985;51.070;14.064;2024-03-23T12:02:15;0.50;;;0.50;;
73684;SDS011;61985;51.070;14.064;2024-03-23T12:04:43;1.48;;;0.70;;
73684;SDS011;61985;51.070;14.064;2024-03-23T12:07:12;0.57;;;0.57;;
73684;SDS011;61985;51.070;14.064;2024-03-23T12:09:39;1.45;;;0.60;;
73684;SDS011;61985;51.070;14.064;2024-03-23T12:12:16;0.40;;;0.40;;
73684;SDS011;61985;51.070;14.064;2024-03-23T12:14:42;0.25;;;0.22;;
73684;SDS011;61985;51.070;14.064;2024-03-23T12:17:25;0.22;;;0.22;;
73684;SDS011;61985;51.070;14.064;2024-03-23T12:19:50;0.55;;;0.40;;
73684;SDS011;61985;51.070;14.064;2024-03-23T12:22:16;0.55;;;0.50;;
73684;SDS011;61985;51.070;14.064;2024-03-23T12:24:45;0.35;;;0.28;;
73684;SDS011;61985;51.070;14.064;2024-03-23T12:27:11;0.40;;;0.40;;
73684;SDS011;61985;51.070;14.064;2024-03-23T12:29:36;0.50;;;0.50;;
73684;SDS011;61985;51.070;14.064;2024-03-23T12:32:04;0.40;;;0.40;;
73684;SDS011;61985;51.070;14.064;2024-03-23T12:34:29;0.55;;;0.50;;
73684;SDS011;61985;51.070;14.064;2024-03-23T12:36:58;1.58;;;0.43;;
73684;SDS011;61985;51.070;14.064;2024-03-23T12:39:23;0.40;;;0.35;;
73684;SDS011;61985;51.070;14.064;2024-03-23T12:41:48;0.70;;;0.60;;
73684;SDS011;61985;51.070;14.064;2024-03-23T12:44:14;0.68;;;0.60;;
73684;SDS011;61985;51.070;14.064;2024-03-23T12:46:41;0.93;;;0.65;;
73684;SDS011;61985;51.070;14.064;2024-03-23T12:49:07;0.93;;;0.60;;
73684;SDS011;61985;51.070;14.064;2024-03-23T12:51:32;0.80;;;0.70;;
73684;SDS011;61985;51.070;14.064;2024-03-23T12:53:58;0.80;;;0.77;;
73684;SDS011;61985;51.070;14.064;2024-03-23T12:56:23;0.95;;;0.80;;
73684;SDS011;61985;51.070;14.064;2024-03-23T12:58:49;0.90;;;0.68;;
73684;SDS011;61985;51.070;14.064;2024-03-23T13:01:16;0.88;;;0.80;;
73684;SDS011;61985;51.070;14.064;2024-03-23T13:03:42;1.90;;;0.82;;
73684;SDS011;61985;51.070;14.064;2024-03-23T13:06:09;0.93;;;0.80;;
73684;SDS011;61985;51.070;14.064;2024-03-23T13:08:35;1.48;;;1.10;;
73684;SDS011;61985;51.070;14.064;2024-03-23T13:11:00;2.70;;;0.90;;
73684;SDS011;61985;51.070;14.064;2024-03-23T13:13:25;2.20;;;0.80;;
73684;SDS011;61985;51.070;14.064;2024-03-23T13:15:51;5.78;;;2.80;;
73684;SDS011;61985;51.070;14.064;2024-03-23T13:18:16;5.18;;;2.78;;
73684;SDS011;61985;51.070;14.064;2024-03-23T13:20:42;2.10;;;1.33;;
73684;SDS011;61985;51.070;14.064;2024-03-23T13:23:07;2.65;;;1.77;;
73684;SDS011;61985;51.070;14.064;2024-03-23T13:25:32;1.92;;;1.50;;
73684;SDS011;61985;51.070;14.064;2024-03-23T13:27:58;1.40;;;1.08;;
73684;SDS011;61985;51.070;14.064;2024-03-23T13:30:23;2.08;;;1.55;;
73684;SDS011;61985;51.070;14.064;2024-03-23T13:32:49;1.52;;;1.20;;
73684;SDS011;61985;51.070;14.064;2024-03-23T13:35:15;2.65;;;1.50;;
73684;SDS011;61985;51.070;14.064;2024-03-23T13:37:40;4.78;;;2.65;;
73684;SDS011;61985;51.070;14.064;2024-03-23T13:40:06;3.38;;;2.13;;
73684;SDS011;61985;51.070;14.064;2024-03-23T13:42:32;2.40;;;1.85;;
73684;SDS011;61985;51.070;14.064;2024-03-23T13:44:58;3.67;;;2.00;;
73684;SDS011;61985;51.070;14.064;2024-03-23T13:47:23;3.20;;;2.10;;
73684;SDS011;61985;51.070;14.064;2024-03-23T13:49:48;4.05;;;2.47;;
73684;SDS011;61985;51.070;14.064;2024-03-23T13:52:14;3.80;;;2.10;;
73684;SDS011;61985;51.070;14.064;2024-03-23T13:54:39;6.53;;;2.38;;
73684;SDS011;61985;51.070;14.064;2024-03-23T13:57:10;4.05;;;2.28;;
73684;SDS011;61985;51.070;14.064;2024-03-23T13:59:36;4.88;;;2.35;;
73684;SDS011;61985;51.070;14.064;2024-03-23T14:02:01;5.15;;;2.40;;
73684;SDS011;61985;51.070;14.064;2024-03-23T14:04:26;5.13;;;2.70;;
73684;SDS011;61985;51.070;14.064;2024-03-23T14:06:52;4.28;;;2.80;;
73684;SDS011;61985;51.070;14.064;2024-03-23T14:09:17;7.32;;;2.80;;
73684;SDS011;61985;51.070;14.064;2024-03-23T14:11:47;6.25;;;2.33;;
73684;SDS011;61985;51.070;14.064;2024-03-23T14:14:13;4.97;;;2.47;;
73684;SDS011;61985;51.070;14.064;2024-03-23T14:16:38;4.63;;;2.45;;
73684;SDS011;61985;51.070;14.064;2024-03-23T14:19:03;6.47;;;2.45;;
73684;SDS011;61985;51.070;14.064;2024-03-23T14:21:31;5.03;;;2.97;;
73684;SDS011;61985;51.070;14.064;2024-03-23T14:23:57;2.92;;;1.92;;
73684;SDS011;61985;51.070;14.064;2024-03-23T14:26:22;4.95;;;2.33;;
73684;SDS011;61985;51.070;14.064;2024-03-23T14:28:48;5.68;;;2.17;;
73684;SDS011;61985;51.070;14.064;2024-03-23T14:31:15;4.60;;;1.95;;
73684;SDS011;61985;51.070;14.064;2024-03-23T14:33:40;3.35;;;1.73;;
73684;SDS011;61985;51.070;14.064;2024-03-23T14:36:11;4.68;;;1.90;;
73684;SDS011;61985;51.070;14.064;2024-03-23T14:38:36;3.13;;;1.95;;
73684;SDS011;61985;51.070;14.064;2024-03-23T14:41:01;5.75;;;1.98;;
73684;SDS011;61985;51.070;14.064;2024-03-23T14:43:28;4.55;;;1.98;;
73684;SDS011;61985;51.070;14.064;2024-03-23T14:48:31;6.90;;;2.10;;
73684;SDS011;61985;51.070;14.064;2024-03-23T14:50:57;4.90;;;1.95;;
73684;SDS011;61985;51.070;14.064;2024-03-23T14:53:25;7.18;;;1.77;;
73684;SDS011;61985;51.070;14.064;2024-03-23T14:55:54;4.82;;;2.20;;
73684;SDS011;61985;51.070;14.064;2024-03-23T14:58:20;5.22;;;2.05;;
73684;SDS011;61985;51.070;14.064;2024-03-23T15:00:46;2.85;;;1.73;;
73684;SDS011;61985;51.070;14.064;2024-03-23T15:03:11;3.40;;;1.88;;
73684;SDS011;61985;51.070;14.064;2024-03-23T15:05:36;5.18;;;2.10;;
73684;SDS011;61985;51.070;14.064;2024-03-23T15:08:02;5.18;;;1.90;;
73684;SDS011;61985;51.070;14.064;2024-03-23T15:10:28;5.63;;;2.05;;
73684;SDS011;61985;51.070;14.064;2024-03-23T15:12:53;4.13;;;1.70;;
73684;SDS011;61985;51.070;14.064;2024-03-23T15:15:19;5.93;;;2.03;;
73684;SDS011;61985;51.070;14.064;2024-03-23T15:17:44;7.20;;;2.08;;
73684;SDS011;61985;51.070;14.064;2024-03-23T15:20:10;4.45;;;1.75;;
73684;SDS011;61985;51.070;14.064;2024-03-23T15:22:38;4.93;;;1.60;;
73684;SDS011;61985;51.070;14.064;2024-03-23T15:25:04;4.93;;;1.80;;
73684;SDS011;61985;51.070;14.064;2024-03-23T15:27:29;5.38;;;1.92;;
73684;SDS011;61985;51.070;14.064;2024-03-23T15:29:57;4.28;;;1.83;;
73684;SDS011;61985;51.070;14.064;2024-03-23T15:32:23;5.85;;;1.90;;
73684;SDS011;61985;51.070;14.064;2024-03-23T15:34:48;4.32;;;2.08;;